Time;durP1;ratioP1;P1;durP2;ratioP2;P2;SDS_P1;SDS_P2;PMS_P1;PMS_P2;Temp;Humidity;BMP_temperature;BMP_pressure;BME280_temperature;BME280_humidity;BME280_pressure;Samples;Min_cycle;Max_cycle;Signal;HPM_P1;HPM_P2
2023/12/28 00:04:16;;;;;;;2.10;0.73;;;;;;;17.02;49.31;96833.06;10401366;28;20090;-30
2023/12/28 00:09:17;;;;;;;1.55;0.70;;;;;;;16.99;49.65;96838.09;10401042;28;20345;-29
2023/12/28 00:14:17;;;;;;;2.57;0.77;;;;;;;17.00;49.46;96827.13;10396047;28;20033;-30
2023/12/28 00:19:19;;;;;;;1.47;0.70;;;;;;;16.99;49.41;96848.22;10392029;28;20167;-30
2023/12/28 00:24:20;;;;;;;1.15;0.68;;;;;;;17.01;49.41;96847.41;10402151;28;20044;-30
2023/12/28 00:29:20;;;;;;;0.75;0.70;;;;;;;17.01;49.25;96833.88;10399862;28;20068;-29
2023/12/28 00:34:21;;;;;;;1.03;0.60;;;;;;;16.99;49.17;96843.97;10394812;28;20045;-30
2023/12/28 00:39:21;;;;;;;1.60;0.80;;;;;;;16.99;49.20;96828.81;10398081;28;20041;-29
2023/12/28 00:44:23;;;;;;;1.05;0.93;;;;;;;16.99;49.19;96845.69;10399716;28;20029;-30
2023/12/28 00:49:23;;;;;;;0.70;0.57;;;;;;;17.03;49.37;96860.03;10404197;28;20447;-30
2023/12/28 00:54:24;;;;;;;1.05;0.70;;;;;;;17.04;49.01;96841.50;10412061;28;20128;-30
2023/12/28 00:59:24;;;;;;;1.10;0.80;;;;;;;16.98;48.96;96839.75;10401447;28;20038;-29
2023/12/28 01:04:25;;;;;;;0.87;0.60;;;;;;;16.89;48.35;96821.16;10401167;28;20037;-26
2023/12/28 01:09:25;;;;;;;0.73;0.65;;;;;;;17.00;48.11;96849.91;10406817;28;20805;-29
2023/12/28 01:14:25;;;;;;;1.07;0.73;;;;;;;16.93;48.65;96859.13;10403201;28;20041;-30
2023/12/28 01:19:26;;;;;;;1.03;0.73;;;;;;;16.97;48.60;96881.06;10404524;28;20056;-30
2023/12/28 01:24:26;;;;;;;1.73;0.60;;;;;;;16.96;48.54;96863.34;10402017;28;20038;-30
2023/12/28 01:29:26;;;;;;;0.90;0.70;;;;;;;16.91;49.18;96882.72;10406403;28;20037;-30
2023/12/28 01:34:27;;;;;;;0.80;0.73;;;;;;;16.97;48.50;96880.22;10400611;28;20470;-30
2023/12/28 01:39:27;;;;;;;0.70;0.70;;;;;;;16.93;48.96;96893.69;10404811;28;20069;-30
2023/12/28 01:44:27;;;;;;;0.80;0.60;;;;;;;16.78;48.85;96871.63;10388692;28;20418;-30
2023/12/28 01:49:28;;;;;;;0.60;0.60;;;;;;;16.92;48.98;96907.16;10396185;28;20113;-30
2023/12/28 01:54:28;;;;;;;0.90;0.53;;;;;;;17.01;47.20;96924.94;10402271;28;20098;-29
2023/12/28 01:59:30;;;;;;;0.70;0.55;;;;;;;17.05;47.95;96924.13;10400571;28;20650;-30
2023/12/28 02:04:31;;;;;;;0.75;0.57;;;;;;;17.09;47.88;96925.84;10402357;28;20064;-29
2023/12/28 02:09:31;;;;;;;1.00;0.50;;;;;;;17.12;47.09;96933.47;10400606;28;20031;-31
2023/12/28 02:14:32;;;;;;;1.83;1.07;;;;;;;17.09;47.46;96956.22;10395573;28;20506;-30
2023/12/28 02:19:54;;;;;;;0.90;0.57;;;;;;;17.12;47.15;96941.06;10402227;28;20496;-30
2023/12/28 02:25:07;;;;;;;0.90;0.70;;;;;;;17.10;47.41;96957.91;10401258;28;20303;-30
2023/12/28 02:30:12;;;;;;;0.77;0.70;;;;;;;17.10;46.96;96978.16;10401227;28;20038;-30
2023/12/28 02:35:19;;;;;;;1.83;1.05;;;;;;;17.08;47.68;96957.06;10400493;28;20029;-29
2023/12/28 02:40:21;;;;;;;0.60;0.47;;;;;;;17.08;47.67;96975.59;10398369;28;20488;-29
2023/12/28 02:45:21;;;;;;;1.33;0.70;;;;;;;17.06;48.04;96962.09;10399533;28;20033;-30
2023/12/28 02:50:21;;;;;;;1.50;0.70;;;;;;;17.04;48.19;96973.00;10395682;28;20542;-30
2023/12/28 02:55:23;;;;;;;0.50;0.40;;;;;;;17.05;48.27;96985.69;10398526;28;20033;-30
2023/12/28 03:00:23;;;;;;;0.70;0.50;;;;;;;17.05;48.35;96989.88;10394800;28;20299;-29
2023/12/28 03:05:23;;;;;;;0.87;0.60;;;;;;;17.03;48.43;96996.63;10396725;28;20037;-30
2023/12/28 03:10:24;;;;;;;0.55;0.45;;;;;;;17.01;48.45;96973.00;10396257;28;20029;-30
2023/12/28 03:15:24;;;;;;;1.15;0.75;;;;;;;17.02;48.46;96984.81;10396393;28;20116;-30
2023/12/28 03:20:24;;;;;;;0.77;0.50;;;;;;;17.02;48.12;96979.75;10396105;28;20042;-29
2023/12/28 03:25:25;;;;;;;0.80;0.80;;;;;;;17.02;48.09;96989.88;10395488;28;20753;-30
2023/12/28 03:30:25;;;;;;;1.27;0.70;;;;;;;16.98;48.10;96978.03;10402004;28;20029;-31
2023/12/28 03:35:26;;;;;;;0.50;0.50;;;;;;;17.01;48.27;96973.00;10398576;28;20029;-29
2023/12/28 03:40:26;;;;;;;0.70;0.53;;;;;;;17.00;48.62;96968.78;10408641;28;20802;-29
2023/12/28 03:45:26;;;;;;;1.00;0.60;;;;;;;16.98;48.33;96960.34;10404185;28;20288;-30
2023/12/28 03:50:27;;;;;;;1.03;0.70;;;;;;;16.97;48.63;96951.88;10400011;28;20091;-31
2023/12/28 03:55:27;;;;;;;0.60;0.50;;;;;;;17.01;48.67;96947.72;10392099;28;20048;-30
2023/12/28 04:00:28;;;;;;;0.40;0.37;;;;;;;16.99;48.45;96949.38;10401877;28;20029;-31
2023/12/28 04:05:28;;;;;;;0.53;0.50;;;;;;;16.96;48.69;96945.13;10399249;28;20083;-32
2023/12/28 04:10:32;;;;;;;0.73;0.53;;;;;;;16.98;48.54;96937.56;10394854;28;20036;-29
2023/12/28 04:15:33;;;;;;;0.75;0.60;;;;;;;17.00;48.18;96930.84;10400500;28;20037;-29
2023/12/28 04:20:33;;;;;;;0.50;0.50;;;;;;;16.96;48.51;96929.09;10408567;28;20033;-30
2023/12/28 04:25:34;;;;;;;0.70;0.60;;;;;;;16.94;48.27;96916.47;10402624;28;20048;-30
2023/12/28 04:30:34;;;;;;;1.05;0.60;;;;;;;16.96;48.44;96921.50;10405498;28;20094;-30
2023/12/28 04:35:35;;;;;;;0.50;0.50;;;;;;;16.88;48.46;96895.31;10406578;28;20098;-30
2023/12/28 04:40:35;;;;;;;0.57;0.57;;;;;;;16.96;48.40;96891.16;10398963;28;20029;-30
2023/12/28 04:45:35;;;;;;;0.73;0.47;;;;;;;16.96;48.62;96888.63;10402562;28;20025;-29
2023/12/28 04:50:36;;;;;;;0.63;0.50;;;;;;;16.98;48.68;96884.47;10404212;28;20292;-29
2023/12/28 04:55:36;;;;;;;1.63;0.73;;;;;;;16.93;48.63;96863.31;10400414;28;20730;-30
2023/12/28 05:00:36;;;;;;;1.27;0.70;;;;;;;17.02;48.23;96888.69;10405569;28;20288;-30
2023/12/28 05:05:37;;;;;;;1.07;0.57;;;;;;;17.02;48.59;96889.56;10403320;28;20037;-30
2023/12/28 05:10:37;;;;;;;0.63;0.47;;;;;;;16.99;48.56;96896.25;10394369;28;20047;-30
2023/12/28 05:15:37;;;;;;;0.60;0.50;;;;;;;17.03;48.46;96910.63;10405852;28;20033;-30
2023/12/28 05:20:39;;;;;;;0.50;0.40;;;;;;;16.98;49.09;96904.69;10396185;28;20022;-30
2023/12/28 05:25:40;;;;;;;0.90;0.60;;;;;;;17.01;48.77;96907.25;10396171;28;20288;-30
2023/12/28 05:30:40;;;;;;;0.75;0.70;;;;;;;16.96;49.07;96913.94;10402379;28;20029;-29
2023/12/28 05:35:40;;;;;;;0.53;0.53;;;;;;;17.01;48.63;96930.00;10399043;28;20033;-29
2023/12/28 05:40:41;;;;;;;1.03;0.60;;;;;;;17.06;48.21;96921.63;10399526;28;20037;-29
2023/12/28 05:45:41;;;;;;;2.42;0.60;;;;;;;17.11;47.70;96929.25;10403411;28;20033;-29
2023/12/28 05:50:41;;;;;;;0.80;0.50;;;;;;;17.12;47.49;96921.69;10397283;28;20037;-29
2023/12/28 05:55:42;;;;;;;0.82;0.75;;;;;;;17.02;47.43;96919.91;10401672;28;20284;-29
2023/12/28 06:00:43;;;;;;;1.52;0.77;;;;;;;17.10;48.08;96917.44;10400604;28;20048;-30
2023/12/28 06:05:44;;;;;;;6.00;1.02;;;;;;;17.08;46.49;96914.06;10401713;28;20040;-29
2023/12/28 06:10:44;;;;;;;2.95;1.08;;;;;;;17.06;48.27;96926.66;10361985;28;1040859;-31
2023/12/28 06:15:44;;;;;;;2.30;0.90;;;;;;;17.07;48.37;96918.25;10404085;28;20051;-29
2023/12/28 06:20:45;;;;;;;3.63;0.90;;;;;;;17.01;48.97;96930.00;10398781;28;20296;-29
2023/12/28 06:25:45;;;;;;;1.00;0.60;;;;;;;17.03;49.29;96925.78;10397505;28;20295;-29
2023/12/28 06:30:46;;;;;;;1.85;0.80;;;;;;;17.03;49.64;96925.78;10401991;28;20032;-29
2023/12/28 06:35:46;;;;;;;2.67;0.80;;;;;;;17.02;49.94;96924.09;10404793;28;20084;-30
2023/12/28 06:40:46;;;;;;;2.27;0.83;;;;;;;17.02;49.70;96912.31;10396257;28;20025;-30
2023/12/28 06:45:47;;;;;;;2.17;0.67;;;;;;;17.02;49.64;96929.16;10404909;28;20052;-30
2023/12/28 06:50:47;;;;;;;1.00;0.70;;;;;;;17.04;49.83;96917.38;10402087;28;20091;-30
2023/12/28 06:55:47;;;;;;;2.67;0.70;;;;;;;17.00;49.89;96905.53;10398850;28;20033;-29
2023/12/28 07:00:48;;;;;;;2.07;0.80;;;;;;;16.98;50.16;96912.28;10404356;28;20044;-30
2023/12/28 07:05:48;;;;;;;1.08;0.75;;;;;;;16.99;49.95;96906.38;10395480;28;20407;-29
2023/12/28 07:10:48;;;;;;;0.77;0.50;;;;;;;16.89;49.86;96907.97;10394814;28;20029;-29
2023/12/28 07:15:49;;;;;;;1.27;0.90;;;;;;;16.95;49.78;96907.19;10402426;28;20033;-30
2023/12/28 07:20:49;;;;;;;1.17;0.70;;;;;;;16.95;50.18;96907.19;10395551;28;20052;-30
2023/12/28 07:25:50;;;;;;;0.60;0.60;;;;;;;16.94;50.09;96925.72;10395068;28;20041;-30
2023/12/28 07:30:50;;;;;;;1.38;0.60;;;;;;;16.88;50.61;96900.38;10403061;28;20037;-30
2023/12/28 07:35:51;;;;;;;0.63;0.53;;;;;;;16.93;49.88;96924.03;10395692;28;20033;-30
2023/12/28 07:40:52;;;;;;;1.37;0.80;;;;;;;16.91;50.04;96930.75;10396589;28;20034;-30
2023/12/28 07:45:53;;;;;;;0.88;0.45;;;;;;;16.90;50.47;96934.13;10402022;28;20064;-30
2023/12/28 07:50:53;;;;;;;1.40;1.03;;;;;;;16.91;49.89;96946.75;10396269;28;20037;-30
2023/12/28 07:55:53;;;;;;;2.03;0.90;;;;;;;16.89;50.20;96952.66;10399636;28;20037;-30
2023/12/28 08:00:54;;;;;;;1.03;0.63;;;;;;;16.91;50.50;96940.88;10401408;28;20318;-31
2023/12/28 08:05:55;;;;;;;1.30;0.70;;;;;;;16.92;50.37;96973.75;10399612;28;20610;-30
2023/12/28 08:10:55;;;;;;;1.25;0.85;;;;;;;16.90;50.07;96969.53;10393763;28;20288;-30
2023/12/28 08:15:55;;;;;;;0.70;0.60;;;;;;;16.91;50.67;96971.22;10401955;28;20033;-29
2023/12/28 08:20:56;;;;;;;1.63;0.80;;;;;;;16.92;50.12;96993.13;10401300;28;20041;-30
2023/12/28 08:25:56;;;;;;;1.45;0.60;;;;;;;16.91;50.44;96983.88;10393204;28;20044;-30
2023/12/28 08:30:57;;;;;;;1.10;0.70;;;;;;;16.90;50.34;96994.81;10402122;28;20038;-29
2023/12/28 08:35:57;;;;;;;1.03;0.73;;;;;;;16.78;50.09;96989.59;10394219;28;20183;-29
2023/12/28 08:40:58;;;;;;;2.80;0.80;;;;;;;16.85;50.15;96986.31;10395112;28;20396;-30
2023/12/28 08:45:58;;;;;;;1.00;0.70;;;;;;;16.78;50.38;96976.97;10401733;28;20091;-30
2023/12/28 08:50:58;;;;;;;0.60;0.50;;;;;;;16.84;50.28;96992.22;10400343;28;20411;-29
2023/12/28 08:55:59;;;;;;;1.20;0.80;;;;;;;16.80;50.35;96977.81;10398289;28;20056;-29
2023/12/28 09:00:59;;;;;;;1.63;0.80;;;;;;;16.81;50.11;96987.13;10394962;28;20033;-29
2023/12/28 09:05:59;;;;;;;1.70;1.10;;;;;;;16.85;49.91;96996.44;10396951;28;20049;-30
2023/12/28 09:11:02;;;;;;;0.70;0.57;;;;;;;16.82;50.11;96996.41;10400017;28;20292;-30
2023/12/28 09:16:03;;;;;;;1.25;1.00;;;;;;;16.83;50.50;97013.28;10401688;28;20452;-31
2023/12/28 09:21:04;;;;;;;0.75;0.75;;;;;;;16.80;50.81;97016.63;10404779;28;20046;-30
2023/12/28 09:26:05;;;;;;;0.82;0.70;;;;;;;16.85;50.41;97016.66;10399744;28;20034;-30
2023/12/28 09:31:07;;;;;;;0.95;0.70;;;;;;;16.81;50.47;97020.00;10408184;28;20116;-29
2023/12/28 09:36:12;;;;;;;1.17;0.88;;;;;;;16.79;50.54;97006.47;10398477;28;20041;-29
2023/12/28 09:41:15;;;;;;;1.07;0.90;;;;;;;16.81;49.82;97009.88;10406232;28;20179;-30
2023/12/28 09:46:15;;;;;;;1.08;0.60;;;;;;;16.80;50.30;97020.81;10406984;28;20040;-33
2023/12/28 09:51:17;;;;;;;0.77;0.63;;;;;;;16.70;50.12;97003.84;10400930;28;20044;-31
2023/12/28 09:56:18;;;;;;;0.70;0.50;;;;;;;16.81;50.44;97010.72;10393831;28;20299;-32
2023/12/28 10:01:19;;;;;;;1.40;0.68;;;;;;;16.76;50.41;97001.41;10399004;28;20048;-28
2023/12/28 10:06:21;;;;;;;1.05;0.77;;;;;;;16.81;50.21;97009.88;10395932;28;20116;-29
2023/12/28 10:11:21;;;;;;;0.63;0.60;;;;;;;16.84;50.18;97007.38;10403930;28;20029;-29
2023/12/28 10:16:22;;;;;;;0.85;0.70;;;;;;;16.69;50.11;96981.94;10398865;28;20045;-30
2023/12/28 10:21:25;;;;;;;0.60;0.60;;;;;;;16.84;49.81;97009.91;10402871;28;20431;-29
2023/12/28 10:26:25;;;;;;;0.60;0.57;;;;;;;16.83;49.95;96993.06;10404196;28;20042;-30
2023/12/28 10:31:26;;;;;;;0.90;0.80;;;;;;;16.81;50.18;96995.53;10397449;28;20045;-30
2023/12/28 10:36:27;;;;;;;0.93;0.60;;;;;;;16.82;50.50;96996.41;10396180;28;20450;-29
2023/12/28 10:41:30;;;;;;;1.15;0.80;;;;;;;16.86;50.55;96988.00;10396476;28;20486;-30
2023/12/28 10:46:32;;;;;;;0.82;0.70;;;;;;;16.89;50.58;97005.75;10402961;28;20545;-30
2023/12/28 10:51:34;;;;;;;0.95;0.68;;;;;;;16.87;50.59;97003.22;10400343;28;20566;-30
2023/12/28 10:57:16;;;;;;;0.55;0.55;;;;;;;16.92;50.85;97003.25;10390060;28;20042;-30
2023/12/28 11:02:21;;;;;;;0.73;0.63;;;;;;;16.90;51.22;96990.59;10400602;28;20061;-30
2023/12/28 11:07:23;;;;;;;1.98;0.73;;;;;;;16.90;50.95;96982.16;10399281;28;20033;-30
2023/12/28 11:12:26;;;;;;;0.98;0.70;;;;;;;16.92;50.85;96988.91;10401246;28;20037;-33
2023/12/28 11:17:30;;;;;;;0.70;0.52;;;;;;;16.92;51.28;96988.09;10397449;28;20037;-29
2023/12/28 11:22:31;;;;;;;0.80;0.50;;;;;;;16.94;51.19;96978.81;10395976;28;20570;-29
2023/12/28 11:27:36;;;;;;;0.98;0.47;;;;;;;16.98;51.04;96983.94;10399872;28;20098;-29
2023/12/28 11:32:37;;;;;;;0.70;0.70;;;;;;;17.03;50.89;96951.09;10387980;28;20030;-29
2023/12/28 11:37:39;;;;;;;0.93;0.57;;;;;;;17.08;50.55;96952.00;10396302;28;20041;-29
2023/12/28 11:42:49;;;;;;;0.60;0.57;;;;;;;17.12;50.95;96953.69;10400932;28;20552;-29
2023/12/28 11:48:02;;;;;;;0.85;0.50;;;;;;;17.15;50.40;96962.16;10391839;28;20108;-30
2023/12/28 11:53:02;;;;;;;0.57;0.57;;;;;;;17.16;51.00;96958.78;10388206;28;20682;-30
2023/12/28 11:58:03;;;;;;;0.40;0.40;;;;;;;17.15;50.67;96946.16;10400267;28;20045;-29
2023/12/28 12:03:04;;;;;;;0.85;0.50;;;;;;;17.17;50.89;96949.53;10398939;28;20124;-30
2023/12/28 12:08:08;;;;;;;0.85;0.55;;;;;;;17.21;50.67;96942.00;10402161;28;20025;-30
2023/12/28 12:13:09;;;;;;;0.88;0.47;;;;;;;17.21;50.83;96953.78;10399914;28;20708;-29
2023/12/28 12:18:09;;;;;;;1.70;0.60;;;;;;;17.18;51.13;96966.41;10396811;28;20096;-29
2023/12/28 12:23:11;;;;;;;0.55;0.50;;;;;;;17.18;51.38;96966.41;10401593;28;20120;-30
2023/12/28 12:28:11;;;;;;;0.63;0.60;;;;;;;17.20;51.09;96959.69;10397772;28;20037;-31
2023/12/28 12:33:11;;;;;;;1.20;0.70;;;;;;;17.16;51.24;96948.69;10407017;28;20042;-30
2023/12/28 12:38:12;;;;;;;0.77;0.60;;;;;;;17.25;50.89;96970.69;10402850;28;20041;-31
2023/12/28 12:43:12;;;;;;;0.50;0.43;;;;;;;17.28;50.77;96965.66;10400847;28;20057;-31
2023/12/28 12:48:13;;;;;;;0.68;0.50;;;;;;;17.26;51.12;96922.63;10407514;28;20041;-30
2023/12/28 12:53:13;;;;;;;1.07;0.60;;;;;;;17.29;50.90;96911.69;10398364;28;20155;-32
2023/12/28 12:58:16;;;;;;;0.45;0.43;;;;;;;17.25;50.97;96903.22;10404433;28;20484;-31
2023/12/28 13:03:17;;;;;;;0.43;0.40;;;;;;;17.28;50.79;96889.75;10406485;28;20041;-30
2023/12/28 13:08:18;;;;;;;0.90;0.50;;;;;;;17.31;50.82;96898.22;10403034;28;20041;-29
2023/12/28 13:13:18;;;;;;;0.90;0.60;;;;;;;17.30;51.02;96920.97;10404947;28;20095;-30
2023/12/28 13:18:18;;;;;;;0.70;0.53;;;;;;;17.34;50.64;96931.13;10404949;28;20099;-30
2023/12/28 13:23:19;;;;;;;0.87;0.43;;;;;;;17.35;50.69;96926.91;10396766;28;20056;-30
2023/12/28 13:28:19;;;;;;;0.63;0.60;;;;;;;17.34;50.82;96922.69;10403731;28;20037;-30
2023/12/28 13:33:22;;;;;;;0.57;0.40;;;;;;;17.31;51.28;96925.22;10407039;28;20499;-29
2023/12/28 13:38:22;;;;;;;0.60;0.57;;;;;;;17.34;51.10;96928.59;10401134;28;20037;-29
2023/12/28 13:43:22;;;;;;;0.90;0.90;;;;;;;17.33;50.69;96923.53;10399318;28;20033;-30
2023/12/28 13:48:23;;;;;;;0.57;0.50;;;;;;;17.34;51.17;96932.81;10397949;28;20041;-30
2023/12/28 13:53:23;;;;;;;1.53;0.70;;;;;;;17.34;50.90;96932.81;10407419;28;20041;-30
2023/12/28 13:58:23;;;;;;;0.80;0.60;;;;;;;17.34;50.90;96932.81;10403676;28;20037;-30
2023/12/28 14:03:24;;;;;;;0.70;0.57;;;;;;;17.36;50.55;96941.28;10402539;28;20303;-30
2023/12/28 14:08:24;;;;;;;0.50;0.40;;;;;;;17.35;51.02;96924.38;10401730;28;20512;-30
2023/12/28 14:13:25;;;;;;;1.00;0.60;;;;;;;17.33;51.11;96921.00;10393642;28;20125;-32
2023/12/28 14:18:26;;;;;;;1.23;0.60;;;;;;;17.33;50.99;96937.00;10403961;28;20048;-30
2023/12/28 14:23:26;;;;;;;0.60;0.50;;;;;;;17.35;51.27;96937.03;10405680;28;20033;-30
2023/12/28 14:28:31;;;;;;;1.23;0.90;;;;;;;17.35;51.25;96947.16;10397058;28;20026;-30
2023/12/28 14:33:31;;;;;;;0.52;0.47;;;;;;;17.36;50.94;96938.75;10399588;28;20504;-30
2023/12/28 14:38:32;;;;;;;0.50;0.50;;;;;;;17.34;51.14;96937.88;10404502;28;20116;-29
2023/12/28 14:43:32;;;;;;;0.97;0.60;;;;;;;17.36;50.94;96931.16;10396816;28;20412;-30
2023/12/28 14:48:32;;;;;;;0.97;0.73;;;;;;;17.27;51.28;96911.69;10396467;28;20516;-29
2023/12/28 14:53:33;;;;;;;0.60;0.50;;;;;;;17.32;51.21;96930.25;10401632;28;20083;-30
2023/12/28 14:58:33;;;;;;;0.50;0.43;;;;;;;17.31;51.09;96926.03;10396368;28;20029;-30
2023/12/28 15:03:34;;;;;;;0.85;0.55;;;;;;;17.30;51.10;96924.34;10396280;28;20155;-31
2023/12/28 15:08:34;;;;;;;0.70;0.50;;;;;;;17.29;51.31;96904.09;10404404;28;20052;-29
2023/12/28 15:13:35;;;;;;;1.00;0.50;;;;;;;17.32;51.12;96886.41;10399209;28;20288;-29
2023/12/28 15:18:35;;;;;;;0.40;0.38;;;;;;;17.29;51.32;96878.78;10402188;28;20299;-30
2023/12/28 15:23:36;;;;;;;0.80;0.70;;;;;;;17.31;51.10;96869.53;10396921;28;20033;-30
2023/12/28 15:28:37;;;;;;;0.40;0.40;;;;;;;17.34;51.19;96851.84;10397658;28;20391;-30
2023/12/28 15:33:37;;;;;;;0.40;0.40;;;;;;;17.37;51.23;96857.81;10395509;28;20033;-31
2023/12/28 15:38:38;;;;;;;0.87;0.70;;;;;;;17.37;51.10;96849.34;10399199;28;20037;-30
2023/12/28 15:43:38;;;;;;;0.60;0.60;;;;;;;17.40;50.92;96846.84;10397991;28;20029;-30
2023/12/28 15:48:38;;;;;;;0.50;0.40;;;;;;;17.40;50.82;96851.91;10399804;28;20128;-30
2023/12/28 15:53:40;;;;;;;0.53;0.50;;;;;;;17.41;50.85;96858.66;10398142;28;20040;-30
2023/12/28 15:58:41;;;;;;;0.30;0.30;;;;;;;17.43;51.06;96867.09;10389454;28;20080;-31
2023/12/28 16:03:41;;;;;;;0.20;0.20;;;;;;;17.41;50.86;96871.31;10401159;28;20025;-30
2023/12/28 16:08:42;;;;;;;0.77;0.40;;;;;;;17.41;51.13;96889.03;10399478;28;20017;-30
2023/12/28 16:13:43;;;;;;;0.35;0.35;;;;;;;17.41;50.99;96901.69;10405938;28;20029;-29
2023/12/28 16:18:44;;;;;;;0.35;0.32;;;;;;;17.41;50.88;96900.00;10410805;28;20476;-30
2023/12/28 16:23:44;;;;;;;0.70;0.60;;;;;;;17.41;51.25;96904.22;10405265;28;20029;-29
2023/12/28 16:28:45;;;;;;;0.70;0.50;;;;;;;17.37;51.03;96894.91;10408023;28;20455;-29
2023/12/28 16:33:45;;;;;;;0.68;0.47;;;;;;;17.42;51.44;96913.50;10408138;28;20397;-29
2023/12/28 16:38:46;;;;;;;1.33;0.57;;;;;;;17.41;51.45;96904.22;10408191;28;20506;-29
2023/12/28 16:43:49;;;;;;;1.17;0.70;;;;;;;17.40;51.75;96894.94;10398307;28;20120;-30
2023/12/28 16:48:49;;;;;;;0.55;0.50;;;;;;;17.38;51.54;96901.66;10406057;28;20021;-30
2023/12/28 16:53:50;;;;;;;0.65;0.50;;;;;;;17.30;51.90;96883.00;10407954;28;20029;-29
2023/12/28 16:58:50;;;;;;;0.60;0.60;;;;;;;17.37;51.79;96898.28;10403299;28;20032;-31
2023/12/28 17:03:51;;;;;;;0.75;0.50;;;;;;;17.33;51.72;96898.22;10405929;28;20029;-29
2023/12/28 17:08:51;;;;;;;0.77;0.50;;;;;;;17.31;51.67;96902.44;10395121;28;20041;-30
2023/12/28 17:13:52;;;;;;;0.70;0.40;;;;;;;17.26;51.85;96899.84;10394359;28;20297;-30
2023/12/28 17:18:52;;;;;;;3.80;1.00;;;;;;;17.34;52.14;96892.31;10403821;28;20037;-30
2023/12/28 17:23:53;;;;;;;2.25;0.60;;;;;;;17.36;52.11;96910.91;10405917;28;20045;-29
2023/12/28 17:29:07;;;;;;;0.80;0.45;;;;;;;17.33;52.57;96906.66;10403083;28;20048;-29
2023/12/28 17:34:07;;;;;;;4.40;0.77;;;;;;;17.33;52.55;96906.66;10406843;28;20412;-29
2023/12/28 17:39:10;;;;;;;2.05;0.70;;;;;;;17.33;52.87;96916.78;10406829;28;20045;-29
2023/12/28 17:44:17;;;;;;;2.45;0.77;;;;;;;17.34;52.39;96908.34;10398800;28;20045;-30
2023/12/28 17:49:28;;;;;;;1.33;0.60;;;;;;;17.18;52.32;96890.50;10396594;28;20026;-30
2023/12/28 17:54:29;;;;;;;1.33;0.50;;;;;;;17.33;52.46;96918.47;10403622;28;20033;-29
2023/12/28 17:59:29;;;;;;;2.30;0.60;;;;;;;17.35;52.48;96916.78;10405514;28;20037;-30
2023/12/28 18:04:30;;;;;;;0.43;0.30;;;;;;;17.37;52.53;96918.53;10401203;28;20296;-30
2023/12/28 18:09:30;;;;;;;1.50;1.23;;;;;;;17.42;52.09;96929.53;10402578;28;20783;-31
2023/12/28 18:14:30;;;;;;;1.17;0.53;;;;;;;17.42;52.46;96931.22;10398314;28;20284;-31
2023/12/28 18:19:31;;;;;;;2.53;0.60;;;;;;;17.46;52.24;96932.94;10401476;28;20529;-30
2023/12/28 18:24:31;;;;;;;2.73;0.50;;;;;;;17.41;52.59;96929.53;10399544;28;20046;-30
2023/12/28 18:29:31;;;;;;;0.47;0.47;;;;;;;17.42;52.55;96921.09;10406678;28;20284;-29
2023/12/28 18:34:32;;;;;;;1.85;0.40;;;;;;;17.45;52.83;96933.75;10402892;28;20295;-30
2023/12/28 18:39:37;;;;;;;8.00;0.70;;;;;;;17.40;53.11;96932.91;10396554;28;20041;-31
2023/12/28 18:44:37;;;;;;;5.68;0.45;;;;;;;17.45;52.65;96941.34;10402299;28;20421;-29
2023/12/28 18:49:37;;;;;;;1.10;0.80;;;;;;;17.35;52.47;96924.38;10401557;28;20029;-30
2023/12/28 18:54:38;;;;;;;4.23;0.93;;;;;;;17.55;52.26;96949.03;10401377;28;20726;-29
2023/12/28 18:59:38;;;;;;;6.80;1.00;;;;;;;17.57;52.28;96934.69;10412974;28;20033;-30
2023/12/28 19:04:38;;;;;;;4.90;0.90;;;;;;;17.39;52.65;96937.09;10402462;28;20678;-30
2023/12/28 19:09:39;;;;;;;6.13;0.90;;;;;;;17.51;51.36;96916.94;10394491;28;20021;-30
2023/12/28 19:14:39;;;;;;;2.83;0.60;;;;;;;17.54;52.40;96927.09;10399265;28;20694;-29
2023/12/28 19:19:40;;;;;;;3.90;1.23;;;;;;;17.49;53.08;96925.38;10399118;28;20052;-29
2023/12/28 19:24:40;;;;;;;4.33;1.10;;;;;;;17.56;52.55;96924.59;10393894;28;20034;-30
2023/12/28 19:29:40;;;;;;;3.75;0.85;;;;;;;17.55;53.51;96922.88;10398938;28;20268;-31
2023/12/28 19:34:41;;;;;;;4.67;0.80;;;;;;;17.50;53.77;96917.78;10401656;28;20040;-30
2023/12/28 19:39:45;;;;;;;3.00;0.97;;;;;;;17.57;53.39;96914.44;10396407;28;20026;-30
2023/12/28 19:44:45;;;;;;;6.13;1.35;;;;;;;17.55;53.53;96912.72;10394865;28;20033;-30
2023/12/28 19:49:46;;;;;;;2.90;1.10;;;;;;;17.56;53.39;96909.41;10396317;28;20446;-29
2023/12/28 19:54:46;;;;;;;1.40;0.60;;;;;;;17.47;53.85;96894.13;10398646;28;20044;-29
2023/12/28 19:59:47;;;;;;;4.82;0.93;;;;;;;17.55;54.08;96893.34;10401349;28;20486;-29
2023/12/28 20:04:47;;;;;;;2.23;0.70;;;;;;;17.56;54.06;96889.16;10394677;28;20037;-30
2023/12/28 20:09:47;;;;;;;3.00;0.57;;;;;;;17.56;53.88;96891.69;10396797;28;20293;-32
2023/12/28 20:14:48;;;;;;;2.30;1.17;;;;;;;17.56;53.69;96879.03;10399188;28;20873;-30
2023/12/28 20:19:49;;;;;;;2.90;0.80;;;;;;;17.57;53.78;96875.66;10397211;28;20044;-31
2023/12/28 20:24:49;;;;;;;2.75;0.70;;;;;;;17.52;54.45;96877.28;10397659;28;20304;-30
2023/12/28 20:29:49;;;;;;;2.90;0.70;;;;;;;17.57;53.13;96870.59;10399048;28;20026;-30
2023/12/28 20:34:50;;;;;;;3.47;0.50;;;;;;;17.57;54.56;96875.66;10398137;28;20041;-30
2023/12/28 20:39:50;;;;;;;3.23;0.80;;;;;;;17.58;54.90;96882.41;10396254;28;20050;-30
2023/12/28 20:44:50;;;;;;;5.45;1.45;;;;;;;17.59;55.45;96881.56;10396612;28;20298;-30
2023/12/28 20:49:52;;;;;;;3.50;0.73;;;;;;;17.56;55.07;96868.91;10399087;28;20038;-30
2023/12/28 20:54:53;;;;;;;3.50;0.68;;;;;;;17.53;55.76;96873.91;10398945;28;20087;-30
2023/12/28 20:59:53;;;;;;;3.43;1.10;;;;;;;17.54;54.62;96871.41;10404027;28;20030;-29
2023/12/28 21:04:54;;;;;;;3.65;0.70;;;;;;;17.56;54.42;96877.31;10400239;28;20089;-29
2023/12/28 21:09:56;;;;;;;3.20;0.60;;;;;;;17.54;54.22;96870.53;10395759;28;20404;-30
2023/12/28 21:14:56;;;;;;;1.40;0.40;;;;;;;17.58;53.89;96872.28;10406032;28;20040;-29
2023/12/28 21:19:57;;;;;;;1.03;0.70;;;;;;;17.58;54.18;96877.34;10403427;28;20045;-30
2023/12/28 21:24:57;;;;;;;5.23;0.67;;;;;;;17.59;54.02;96879.03;10399105;28;20112;-30
2023/12/28 21:29:57;;;;;;;3.77;0.80;;;;;;;17.59;53.61;96884.09;10402052;28;20034;-30
2023/12/28 21:34:58;;;;;;;0.47;0.47;;;;;;;17.59;53.81;96886.63;10389550;28;20033;-31
2023/12/28 21:39:58;;;;;;;2.97;0.70;;;;;;;17.51;55.02;96866.31;10404371;28;20128;-30
2023/12/28 21:45:01;;;;;;;2.20;0.70;;;;;;;17.47;54.56;96853.63;10401493;28;20037;-30
2023/12/28 21:50:03;;;;;;;1.70;0.80;;;;;;;17.59;54.00;96869.72;10405918;28;20025;-29
2023/12/28 21:55:04;;;;;;;2.90;1.08;;;;;;;17.57;54.19;96870.59;10399192;28;20033;-30
2023/12/28 22:00:05;;;;;;;1.92;1.27;;;;;;;17.55;54.26;96867.16;10404630;28;20030;-30
2023/12/28 22:05:08;;;;;;;1.65;0.43;;;;;;;17.54;53.84;96883.19;10395623;28;20045;-30
2023/12/28 22:10:09;;;;;;;1.15;0.60;;;;;;;17.50;54.07;96871.38;10391268;28;20037;-29
2023/12/28 22:15:10;;;;;;;1.17;0.50;;;;;;;17.52;54.32;96872.22;10399750;28;20234;-29
2023/12/28 22:20:10;;;;;;;2.00;0.50;;;;;;;17.50;54.41;96848.59;10393841;28;20048;-29
2023/12/28 22:25:10;;;;;;;0.68;0.43;;;;;;;17.47;54.34;96853.63;10396333;28;20033;-30
2023/12/28 22:30:11;;;;;;;2.27;0.63;;;;;;;17.53;54.62;96861.25;10396067;28;20483;-29
2023/12/28 22:35:12;;;;;;;1.02;0.40;;;;;;;17.48;54.49;96840.16;10388669;28;20365;-30
2023/12/28 22:40:12;;;;;;;1.88;0.50;;;;;;;17.52;54.55;96839.31;10391742;28;20025;-29
2023/12/28 22:45:12;;;;;;;1.63;0.40;;;;;;;17.51;54.70;96832.56;10397447;28;20116;-29
2023/12/28 22:50:13;;;;;;;1.50;0.67;;;;;;;17.48;54.92;96840.16;10401523;28;20292;-29
2023/12/28 22:55:13;;;;;;;1.73;0.50;;;;;;;17.41;55.08;96836.72;10402136;28;20287;-30
2023/12/28 23:00:20;;;;;;;1.80;0.90;;;;;;;17.43;55.69;96846.88;10401739;28;20124;-29
2023/12/28 23:05:20;;;;;;;1.40;0.55;;;;;;;17.49;55.42;96846.91;10395361;28;20345;-29
2023/12/28 23:10:21;;;;;;;2.17;0.73;;;;;;;17.45;55.24;96837.59;10401715;28;20076;-30
2023/12/28 23:15:21;;;;;;;1.00;0.60;;;;;;;17.44;55.41;96853.63;10407777;28;20041;-29
2023/12/28 23:20:21;;;;;;;3.50;0.60;;;;;;;17.46;55.37;96862.06;10408293;28;20307;-30